Time;durP1;ratioP1;P1;durP2;ratioP2;P2;SDS_P1;SDS_P2;PMS_P1;PMS_P2;Temp;Humidity;BMP_temperature;BMP_pressure;BME280_temperature;BME280_humidity;BME280_pressure;Samples;Min_cycle;Max_cycle;Signal;HPM_P1;HPM_P2
2022/12/17 13:06:45;;;;;;;;;;;;;;;13.56;76.72;101443.59;5124392;28;20414;-82
2022/12/17 13:09:14;;;;;;;;;;;;;;;13.58;76.84;101449.81;5110179;28;19994;-83
2022/12/17 13:11:39;;;;;;;;;;;;;;;13.56;76.90;101448.84;5131955;28;19980;-82
2022/12/17 13:14:06;;;;;;;;;;;;;;;13.58;76.64;101448.94;5112285;28;20472;-82
2022/12/17 13:16:44;;;;;;;;;;;;;;;13.58;77.01;101456.81;5107553;28;19923;-82
2022/12/17 13:19:17;;;;;;;;;;;;;;;13.56;76.96;101467.22;5113045;28;20312;-82
2022/12/17 13:21:42;;;;;;;;;;;;;;;13.55;77.29;101459.28;5131958;28;19920;-82
2022/12/17 13:24:11;;;;;;;;;;;;;;;13.57;77.18;101473.38;5128894;28;19922;-82
2022/12/17 13:26:39;;;;;;;;;;;;;;;13.61;76.84;101477.97;5107726;28;19915;-82
2022/12/17 13:29:16;;;;;;;;;;;;;;;13.62;76.67;101487.63;5127117;28;19919;-82
2022/12/17 13:31:45;;;;;;;;;;;;;;;13.61;76.60;101488.47;5102621;28;19946;-82
2022/12/17 13:34:14;;;;;;;;;;;;;;;13.63;75.92;101484.19;5130275;28;19919;-82
2022/12/17 13:36:48;;;;;;;;;;;;;;;13.64;75.85;101496.50;5126565;27;19915;-82
2022/12/17 13:39:34;;;;;;;;;;;;;;;13.65;76.24;101503.53;5131327;27;19968;-83
2022/12/17 13:41:59;;;;;;;;;;;;;;;13.62;76.47;101511.25;5110690;27;19930;-82
2022/12/17 13:44:30;;;;;;;;;;;;;;;13.66;75.81;101513.22;5116165;27;20331;-82
2022/12/17 13:46:56;;;;;;;;;;;;;;;13.67;75.89;101520.28;5094691;28;20002;-82
2022/12/17 13:49:21;;;;;;;;;;;;;;;13.68;76.24;101527.34;5110491;27;20710;-82
2022/12/17 13:51:46;;;;;;;;;;;;;;;13.71;75.52;101531.84;5127908;27;19923;-82
2022/12/17 13:54:16;;;;;;;;;;;;;;;13.68;75.94;101529.97;5111107;27;19916;-82
2022/12/17 13:56:42;;;;;;;;;;;;;;;13.69;75.87;101544.88;5116936;27;20005;-83
2022/12/17 13:59:14;;;;;;;;;;;;;;;13.69;75.73;101544.88;5132115;27;19958;-83
2022/12/17 14:01:43;;;;;;;;;;;;;;;13.69;75.80;101552.75;5109774;27;19916;-83
2022/12/17 14:04:17;;;;;;;;;;;;;;;13.67;75.83;101554.38;5129261;27;20026;-82
2022/12/17 14:06:43;;;;;;;;;;;;;;;13.74;75.70;101559.16;5100498;28;20320;-81
2022/12/17 14:09:12;;;;;;;;;;;;;;;13.71;75.96;101558.09;5131824;27;19916;-81
2022/12/17 14:14:24;;;;;;;;;;;;;;;13.72;75.91;101560.81;5110586;27;19962;-81
2022/12/17 14:16:49;;;;;;;;;;;;;;;13.70;76.38;101546.69;5110430;27;20381;-81
2022/12/17 14:19:15;;;;;;;;;;;;;;;13.73;75.96;101551.19;5106939;27;19915;-82
2022/12/17 14:21:40;;;;;;;;;;;;;;;13.72;76.11;101544.16;5115221;27;20412;-82
2022/12/17 14:24:06;;;;;;;;;;;;;;;13.75;75.70;101552.19;5127952;27;20014;-81
2022/12/17 14:26:31;;;;;;;;;;;;;;;13.72;75.96;101550.31;5130703;27;20063;-81
2022/12/17 14:28:56;;;;;;;;;;;;;;;13.74;75.55;101563.53;5124770;27;20024;-82
2022/12/17 14:31:23;;;;;;;;;;;;;;;13.73;75.61;101557.34;5130813;27;19960;-81
2022/12/17 14:34:09;;;;;;;;;;;;;;;13.77;75.46;101554.06;5090426;27;19967;-81
2022/12/17 14:39:32;;;;;;;;;;;;;;;13.79;75.34;101552.44;5045649;28;19990;-79
2022/12/17 14:42:24;;;;;;;;;;;;;;;13.81;75.20;101553.41;5049075;28;19920;-82
2022/12/17 14:44:50;;;;;;;;;;;;;;;13.78;75.51;101553.25;5049728;28;19982;-81
2022/12/17 14:47:20;;;;;;;;;;;;;;;13.80;75.38;101554.25;5048871;28;20360;-81
2022/12/17 14:49:49;;;;;;;;;;;;;;;13.70;76.31;101561.56;5049613;28;20014;-83
2022/12/17 14:52:18;;;;;;;;;;;;;;;13.76;75.58;101559.25;5043375;28;20389;-83
2022/12/17 14:54:45;;;;;;;;;;;;;;;13.80;75.89;101567.38;5039740;28;19921;-82
2022/12/17 14:57:18;;;;;;;;;;;;;;;13.82;76.40;101573.63;5046104;28;19983;-83
2022/12/17 14:59:43;;;;;;;;;;;;;;;13.84;75.94;101568.41;5047027;28;20530;-83
2022/12/17 15:02:25;;;;;;;;;;;;;;;13.81;76.04;101561.28;5045989;28;19952;-83
2022/12/17 15:04:57;;;;;;;;;;;;;;;13.82;75.99;101564.81;5045617;28;19917;-83
2022/12/17 15:07:24;;;;;;;;;;;;;;;13.87;75.64;101563.34;5042095;28;19939;-83
2022/12/17 15:09:51;;;;;;;;;;;;;;;13.89;75.57;101566.06;5041037;28;20408;-83
2022/12/17 15:12:17;;;;;;;;;;;;;;;13.91;75.25;101569.69;5050556;28;19917;-83
2022/12/17 15:14:42;;;;;;;;;;;;;;;13.90;75.13;101571.38;5045400;28;20011;-81
2022/12/17 15:17:07;;;;;;;;;;;;;;;13.89;75.64;101580.09;5046054;28;20007;-81
2022/12/17 15:19:33;;;;;;;;;;;;;;;13.88;75.12;101578.28;5041519;28;20393;-82
2022/12/17 15:21:58;;;;;;;;;;;;;;;13.90;75.08;101579.25;5052398;28;19920;-83
2022/12/17 15:24:26;;;;;;;;;;;;;;;13.91;74.98;101580.19;5048519;28;20377;-82
2022/12/17 15:26:51;;;;;;;;;;;;;;;13.91;74.95;101583.69;5048460;28;19921;-81
2022/12/17 15:29:17;;;;;;;;;;;;;;;13.91;74.95;101593.31;5046350;28;19983;-81
2022/12/17 15:31:42;;;;;;;;;;;;;;;13.92;74.71;101596.00;5051582;28;20432;-82
2022/12/17 15:34:08;;;;;;;;;;;;;;;13.92;74.79;101590.75;5042094;28;20004;-81
2022/12/17 15:36:33;;;;;;;;;;;;;;;13.88;75.16;101593.13;5044210;28;19920;-81
2022/12/17 15:38:59;;;;;;;;;;;;;;;13.92;74.95;101595.09;5039734;28;19921;-81
2022/12/17 15:44:08;;;;;;;;;;;;;;;13.94;74.77;101596.09;5042242;28;19959;-81
2022/12/17 15:46:33;;;;;;;;;;;;;;;13.92;74.73;101597.72;5052231;28;20308;-81
2022/12/17 15:48:59;;;;;;;;;;;;;;;13.95;74.72;101597.88;5030179;28;20493;-81
2022/12/17 15:51:24;;;;;;;;;;;;;;;13.96;74.68;101603.22;5049119;28;19975;-81
2022/12/17 15:53:50;;;;;;;;;;;;;;;13.95;74.57;101595.25;5044323;28;19921;-81
2022/12/17 15:56:19;;;;;;;;;;;;;;;13.95;74.50;101596.19;5047519;28;19928;-81
2022/12/17 15:58:45;;;;;;;;;;;;;;;13.94;74.65;101594.34;5040280;28;19917;-81
2022/12/17 16:01:10;;;;;;;;;;;;;;;13.97;74.50;101598.84;5037865;28;19924;-81
2022/12/17 16:03:36;;;;;;;;;;;;;;;13.96;74.61;101603.22;5037942;28;20386;-81
2022/12/17 16:06:01;;;;;;;;;;;;;;;13.96;74.82;101604.94;5040894;28;20328;-81
2022/12/17 16:08:26;;;;;;;;;;;;;;;13.94;74.73;101602.22;5035823;28;20447;-81
2022/12/17 16:10:52;;;;;;;;;;;;;;;13.95;74.34;101596.19;5042377;28;19928;-82
2022/12/17 16:13:17;;;;;;;;;;;;;;;13.98;74.31;101598.94;5033358;28;19947;-82
2022/12/17 16:15:44;;;;;;;;;;;;;;;13.97;74.42;101594.53;5037634;28;19947;-84
2022/12/17 16:18:09;;;;;;;;;;;;;;;13.97;74.45;101589.28;5049644;28;19917;-85
2022/12/17 16:20:35;;;;;;;;;;;;;;;14.00;74.43;101609.53;5050083;28;20408;-83
2022/12/17 16:23:00;;;;;;;;;;;;;;;13.98;74.28;101601.56;5045851;28;20009;-82
2022/12/17 16:25:25;;;;;;;;;;;;;;;13.97;74.42;101615.53;5047337;28;20377;-83
2022/12/17 16:27:51;;;;;;;;;;;;;;;14.01;74.28;101617.50;5041292;28;20458;-82
2022/12/17 16:30:16;;;;;;;;;;;;;;;13.99;74.42;101624.41;5030782;28;20397;-82
2022/12/17 16:32:42;;;;;;;;;;;;;;;13.98;74.36;101621.69;5042065;28;19959;-82
2022/12/17 16:35:08;;;;;;;;;;;;;;;14.01;73.98;101624.47;5041735;28;20355;-83
2022/12/17 16:37:33;;;;;;;;;;;;;;;14.01;74.04;101627.09;5040982;28;19967;-82
2022/12/17 16:39:58;;;;;;;;;;;;;;;14.00;74.19;101627.94;5046858;28;19955;-81
2022/12/17 16:42:24;;;;;;;;;;;;;;;14.00;74.06;101641.97;5034250;28;19947;-82
2022/12/17 16:44:49;;;;;;;;;;;;;;;14.01;74.24;101642.84;5042627;28;19925;-83
2022/12/17 16:47:14;;;;;;;;;;;;;;;14.01;74.02;101635.91;5048310;28;21997;-83
2022/12/17 16:49:40;;;;;;;;;;;;;;;14.02;74.08;101628.91;5048432;28;20406;-83
2022/12/17 16:52:05;;;;;;;;;;;;;;;14.00;74.03;101631.44;5045398;28;20287;-82
2022/12/17 16:54:31;;;;;;;;;;;;;;;14.01;74.10;101635.91;5047518;28;19982;-82
2022/12/17 16:56:59;;;;;;;;;;;;;;;14.05;73.92;101631.69;5041909;28;19917;-84
2022/12/17 16:59:25;;;;;;;;;;;;;;;13.99;74.15;101633.97;5027441;28;19962;-84
2022/12/17 17:01:51;;;;;;;;;;;;;;;14.00;74.04;101628.81;5042781;28;19917;-83
2022/12/17 17:04:17;;;;;;;;;;;;;;;14.02;74.02;101640.31;5040887;28;19967;-83
2022/12/17 17:06:46;;;;;;;;;;;;;;;14.01;73.94;101638.53;5043902;28;19928;-84
2022/12/17 17:09:12;;;;;;;;;;;;;;;14.01;74.19;101641.16;5019013;28;19917;-84
2022/12/17 17:11:38;;;;;;;;;;;;;;;14.03;74.22;101643.84;5046132;28;19924;-84
2022/12/17 17:14:03;;;;;;;;;;;;;;;14.02;74.07;101647.31;5036408;28;20027;-85
2022/12/17 17:16:30;;;;;;;;;;;;;;;14.03;74.42;101644.75;5046286;28;20405;-85
2022/12/17 17:18:55;;;;;;;;;;;;;;;14.04;74.23;101645.66;5050985;28;20055;-84
2022/12/17 17:21:24;;;;;;;;;;;;;;;14.00;74.36;101639.34;5048742;28;20007;-83
2022/12/17 17:23:50;;;;;;;;;;;;;;;14.05;74.23;101644.81;5054281;28;20385;-84
2022/12/17 17:26:16;;;;;;;;;;;;;;;14.05;74.22;101645.75;5050836;28;19973;-83
2022/12/17 17:28:42;;;;;;;;;;;;;;;14.07;74.40;101644.91;5051906;28;19925;-83
2022/12/17 17:31:09;;;;;;;;;;;;;;;14.07;74.07;101650.16;5045295;28;19924;-84
2022/12/17 17:33:35;;;;;;;;;;;;;;;14.02;73.85;101650.81;5048497;28;19947;-83
2022/12/17 17:36:10;;;;;;;;;;;;;;;14.04;74.03;101654.44;5047163;28;20365;-85
2022/12/17 17:38:37;;;;;;;;;;;;;;;14.00;73.99;101656.81;5048400;28;20301;-83
2022/12/17 17:41:43;;;;;;;;;;;;;;;14.02;73.82;101644.66;5040446;28;19917;-84
2022/12/17 17:44:12;;;;;;;;;;;;;;;14.02;73.83;101648.19;5042557;28;20444;-82
2022/12/17 17:46:40;;;;;;;;;;;;;;;14.06;73.90;101649.28;5053419;28;19924;-83
2022/12/17 17:53:09;;;;;;;;;;;;;;;;;;;;;
2022/12/17 17:55:54;;;;;;;;;;;;;;;13.99;73.81;101655.00;5007178;28;19932;-84
2022/12/17 17:58:27;;;;;;;;;;;;;;;14.02;73.72;101668.31;5052573;28;19932;-84
2022/12/17 18:00:52;;;;;;;;;;;;;;;14.05;73.52;101672.00;5049357;28;19921;-82
2022/12/17 18:03:18;;;;;;;;;;;;;;;14.02;73.99;101669.22;5041503;28;19924;-85
2022/12/17 18:05:44;;;;;;;;;;;;;;;14.01;73.72;101670.03;5025599;28;19921;-84
2022/12/17 18:08:16;;;;;;;;;;;;;;;14.04;73.54;101674.56;5035514;28;19951;-84
2022/12/17 18:10:42;;;;;;;;;;;;;;;14.09;73.58;101682.66;5024885;28;20413;-85
2022/12/17 18:16:02;;;;;;;;;;;;;;;14.09;73.88;101685.31;5051780;28;19978;-83
2022/12/17 18:18:33;;;;;;;;;;;;;;;14.11;73.94;101679.31;5027506;28;19917;-83
2022/12/17 18:21:05;;;;;;;;;;;;;;;14.14;73.67;101683.81;5026411;28;19929;-83
2022/12/17 18:23:54;;;;;;;;;;;;;;;14.10;73.66;101692.38;5029749;28;19986;-83
2022/12/17 18:26:21;;;;;;;;;;;;;;;14.08;73.63;101687.03;5015938;28;20046;-84
2022/12/17 18:28:51;;;;;;;;;;;;;;;14.14;74.11;101697.88;5023199;28;19917;-83
2022/12/17 18:31:21;;;;;;;;;;;;;;;14.12;73.98;101717.91;5032846;28;19971;-85
2022/12/17 18:33:49;;;;;;;;;;;;;;;14.11;73.72;101716.06;5031077;28;19949;-84
2022/12/17 18:36:19;;;;;;;;;;;;;;;14.12;74.04;101727.47;5041603;28;19924;-85
2022/12/17 18:38:55;;;;;;;;;;;;;;;14.11;73.41;101736.19;5041439;28;19921;-84
2022/12/17 18:44:05;;;;;;;;;;;;;;;14.14;73.45;101742.53;5045803;28;19923;-84
2022/12/17 18:46:31;;;;;;;;;;;;;;;14.11;73.72;101738.81;5015636;28;19917;-84
2022/12/17 18:48:57;;;;;;;;;;;;;;;14.11;73.67;101742.34;5030554;28;20024;-84
2022/12/17 18:51:22;;;;;;;;;;;;;;;14.10;73.87;101747.53;5040351;28;19952;-84
2022/12/17 18:53:48;;;;;;;;;;;;;;;14.14;73.49;101752.09;5046872;28;20019;-83
2022/12/17 18:56:13;;;;;;;;;;;;;;;14.11;73.53;101751.97;5053227;28;19971;-84
2022/12/17 18:58:39;;;;;;;;;;;;;;;14.18;73.43;101757.66;5059843;28;20321;-84
2022/12/17 19:01:04;;;;;;;;;;;;;;;14.18;73.61;101767.22;5032325;28;19956;-84
2022/12/17 19:03:30;;;;;;;;;;;;;;;14.15;73.63;101767.97;5028143;28;19931;-84
2022/12/17 19:05:55;;;;;;;;;;;;;;;14.16;73.71;101774.13;5038020;28;19981;-84
2022/12/17 19:08:21;;;;;;;;;;;;;;;14.19;73.40;101771.69;5032859;28;19920;-84
2022/12/17 19:10:46;;;;;;;;;;;;;;;14.20;73.85;101783.97;5041114;28;19916;-83
2022/12/17 19:13:12;;;;;;;;;;;;;;;14.17;73.28;101779.47;5034535;28;19924;-83
2022/12/17 19:15:37;;;;;;;;;;;;;;;14.21;73.70;101791.94;5031541;28;19917;-82
2022/12/17 19:18:03;;;;;;;;;;;;;;;14.21;73.42;101788.44;5048477;28;19923;-82
2022/12/17 19:20:28;;;;;;;;;;;;;;;14.20;73.51;101774.41;5050280;28;19917;-81
2022/12/17 19:22:54;;;;;;;;;;;;;;;14.18;73.50;101778.66;5046293;28;20028;-83
2022/12/17 19:25:19;;;;;;;;;;;;;;;14.24;73.50;101780.69;5050005;28;19974;-82
2022/12/17 19:27:45;;;;;;;;;;;;;;;14.19;73.19;101785.72;5045732;28;19919;-81
2022/12/17 19:30:12;;;;;;;;;;;;;;;14.24;73.37;101788.59;5043835;28;22200;-83
2022/12/17 19:32:38;;;;;;;;;;;;;;;14.23;73.29;101787.69;5044419;28;19956;-82
2022/12/17 19:35:04;;;;;;;;;;;;;;;14.24;73.48;101788.59;5040804;28;20007;-84
2022/12/17 19:37:29;;;;;;;;;;;;;;;14.23;73.37;101784.16;5046001;28;19990;-84
2022/12/17 19:39:55;;;;;;;;;;;;;;;14.21;73.45;101788.44;5037861;28;19927;-83
2022/12/17 19:42:23;;;;;;;;;;;;;;;14.25;73.41;101798.28;5041756;28;19925;-82
2022/12/17 19:44:49;;;;;;;;;;;;;;;14.27;73.49;101799.28;5042293;28;19932;-85
2022/12/17 19:47:14;;;;;;;;;;;;;;;14.25;73.29;101804.44;5047672;28;19963;-84
2022/12/17 19:49:40;;;;;;;;;;;;;;;14.19;73.32;101793.59;5045871;28;19960;-84
2022/12/17 19:52:05;;;;;;;;;;;;;;;14.24;73.18;101801.72;5040869;28;20447;-84
2022/12/17 19:54:34;;;;;;;;;;;;;;;14.25;73.50;101803.53;5042503;28;19944;-83
2022/12/17 19:56:59;;;;;;;;;;;;;;;14.29;73.29;101812.47;5047015;28;20004;-83
2022/12/17 19:59:25;;;;;;;;;;;;;;;14.28;73.45;101813.31;5047793;28;19995;-84
2022/12/17 20:01:50;;;;;;;;;;;;;;;14.25;73.45;101824.56;5047442;28;19931;-83
2022/12/17 20:04:19;;;;;;;;;;;;;;;14.25;73.64;101833.34;5049031;28;19913;-83
2022/12/17 20:06:44;;;;;;;;;;;;;;;14.31;73.60;101840.69;5020015;28;20306;-83
2022/12/17 20:09:16;;;;;;;;;;;;;;;14.28;73.06;101856.25;5028762;28;19917;-84
2022/12/17 20:11:47;;;;;;;;;;;;;;;14.30;73.39;101856.34;5029038;28;19917;-85
2022/12/17 20:14:19;;;;;;;;;;;;;;;14.31;73.56;101866.03;5045318;28;20389;-85
2022/12/17 20:16:57;;;;;;;;;;;;;;;14.35;73.78;101866.31;5045646;28;20617;-86
2022/12/17 20:19:29;;;;;;;;;;;;;;;14.35;73.60;101847.91;5017337;28;20311;-84
2022/12/17 20:21:58;;;;;;;;;;;;;;;14.36;73.58;101830.41;5026083;28;19923;-84
2022/12/17 20:24:27;;;;;;;;;;;;;;;14.35;73.61;101820.69;5022167;28;20419;-84
2022/12/17 20:26:53;;;;;;;;;;;;;;;14.34;73.99;101829.41;5027156;28;19932;-84
2022/12/17 20:29:23;;;;;;;;;;;;;;;14.37;73.84;101846.28;5029885;28;19919;-84
2022/12/17 20:32:00;;;;;;;;;;;;;;;14.38;73.90;101862.94;5028911;28;19916;-86
2022/12/17 20:34:26;;;;;;;;;;;;;;;14.35;74.04;101849.63;5047367;28;19985;-85
2022/12/17 20:36:57;;;;;;;;;;;;;;;14.37;74.02;101837.47;5023084;28;20385;-84
2022/12/17 20:39:24;;;;;;;;;;;;;;;14.38;73.56;101836.66;5036908;28;19986;-84
2022/12/17 20:41:52;;;;;;;;;;;;;;;14.38;73.90;101839.28;5035118;28;19929;-84
2022/12/17 20:44:18;;;;;;;;;;;;;;;14.37;73.68;101840.09;5031564;28;19916;-84
2022/12/17 20:46:43;;;;;;;;;;;;;;;14.37;73.73;101843.66;5051011;28;19917;-85
2022/12/17 20:49:13;;;;;;;;;;;;;;;14.35;73.54;101839.09;5052508;28;20313;-84
2022/12/17 20:51:39;;;;;;;;;;;;;;;14.36;73.50;101844.44;5053939;28;19917;-84
2022/12/17 20:54:04;;;;;;;;;;;;;;;14.37;73.19;101842.72;5053426;28;19928;-84
2022/12/17 20:56:31;;;;;;;;;;;;;;;14.39;73.15;101846.34;5056169;28;19917;-84
2022/12/17 20:58:57;;;;;;;;;;;;;;;14.39;73.10;101856.84;5055523;28;19916;-85
2022/12/17 21:01:23;;;;;;;;;;;;;;;14.40;72.83;101884.97;5043916;28;20402;-85
2022/12/17 21:03:49;;;;;;;;;;;;;;;14.38;72.96;101916.41;5054791;28;19917;-83
2022/12/17 21:06:19;;;;;;;;;;;;;;;14.37;73.18;101926.81;5054017;28;19923;-83
2022/12/17 21:08:47;;;;;;;;;;;;;;;14.43;73.01;101916.66;5049290;28;19967;-83
2022/12/17 21:11:12;;;;;;;;;;;;;;;14.46;73.06;101922.09;5056878;28;20004;-83
2022/12/17 21:13:37;;;;;;;;;;;;;;;14.43;73.24;101920.22;5051264;28;20004;-84
2022/12/17 21:16:04;;;;;;;;;;;;;;;14.44;72.99;101929.00;5056036;28;19924;-84
2022/12/17 21:18:30;;;;;;;;;;;;;;;14.44;73.13;101932.53;5035458;28;20305;-84
2022/12/17 21:20:59;;;;;;;;;;;;;;;14.43;72.95;101930.72;5049385;28;19927;-84
2022/12/17 21:23:25;;;;;;;;;;;;;;;14.43;73.16;101935.97;5051724;28;19956;-85
2022/12/17 21:26:07;;;;;;;;;;;;;;;14.44;73.24;101943.03;5027800;28;20392;-84
2022/12/17 21:28:35;;;;;;;;;;;;;;;14.43;73.07;101935.06;5041738;28;19917;-84
2022/12/17 21:31:03;;;;;;;;;;;;;;;14.44;72.80;101943.03;5039524;28;19917;-85
2022/12/17 21:33:29;;;;;;;;;;;;;;;14.44;72.51;101937.78;5040445;28;19920;-84
2022/12/17 21:36:01;;;;;;;;;;;;;;;14.46;72.55;101946.66;5041152;28;20548;-84
2022/12/17 21:38:29;;;;;;;;;;;;;;;14.46;72.61;101940.50;5041968;28;19971;-84
2022/12/17 21:40:55;;;;;;;;;;;;;;;14.46;72.65;101941.41;5042758;28;19960;-84
2022/12/17 21:43:21;;;;;;;;;;;;;;;14.47;72.70;101934.41;5042133;28;19947;-84
2022/12/17 21:45:46;;;;;;;;;;;;;;;14.46;72.41;101938.75;5042872;28;19970;-84
2022/12/17 21:48:12;;;;;;;;;;;;;;;14.45;72.52;101929.06;5059256;28;19916;-84
2022/12/17 21:50:41;;;;;;;;;;;;;;;14.46;72.57;101943.13;5069956;28;20482;-84
2022/12/17 21:53:06;;;;;;;;;;;;;;;14.48;72.63;101943.19;5050685;28;20413;-84
2022/12/17 21:55:32;;;;;;;;;;;;;;;14.51;72.64;101946.91;5044956;28;19944;-84
2022/12/17 21:57:57;;;;;;;;;;;;;;;14.49;72.54;101939.75;5044098;28;19952;-84
2022/12/17 22:00:23;;;;;;;;;;;;;;;14.48;72.84;101946.75;5050972;28;19916;-83
2022/12/17 22:02:48;;;;;;;;;;;;;;;14.49;72.55;101940.66;5072340;28;19946;-84
2022/12/17 22:05:13;;;;;;;;;;;;;;;14.49;72.58;101940.66;5068120;28;19916;-84
2022/12/17 22:07:39;;;;;;;;;;;;;;;14.49;72.44;101937.13;5066506;28;20415;-84
2022/12/17 22:10:05;;;;;;;;;;;;;;;14.49;72.28;101948.53;5050728;28;19912;-84
2022/12/17 22:15:15;;;;;;;;;;;;;;;14.49;72.43;101953.81;5050643;28;20403;-83
2022/12/17 22:17:41;;;;;;;;;;;;;;;14.50;72.67;101947.75;5046669;28;19920;-84
2022/12/17 22:20:07;;;;;;;;;;;;;;;14.48;72.33;101954.63;5048629;28;19917;-84
2022/12/17 22:22:32;;;;;;;;;;;;;;;14.52;72.61;101958.31;5072789;28;19920;-84
2022/12/17 22:24:58;;;;;;;;;;;;;;;14.53;72.78;101954.88;5058463;28;19924;-84
2022/12/17 22:27:23;;;;;;;;;;;;;;;14.52;72.59;101951.38;5062395;28;19912;-84
2022/12/17 22:35:20;;;;;;;;;;;;;;;14.53;73.03;101954.88;5053474;28;20369;-84
2022/12/17 22:37:45;;;;;;;;;;;;;;;14.53;72.96;101950.53;5068385;28;20377;-83
2022/12/17 22:40:11;;;;;;;;;;;;;;;14.53;72.93;101955.78;5048205;28;20008;-84
2022/12/17 22:45:20;;;;;;;;;;;;;;;14.54;73.06;101969.81;5039964;28;19923;-84
2022/12/17 22:47:47;;;;;;;;;;;;;;;14.56;72.83;101973.47;5050625;28;19917;-83
2022/12/17 22:50:12;;;;;;;;;;;;;;;14.56;72.80;101973.47;5048595;28;19913;-83
2022/12/17 22:52:38;;;;;;;;;;;;;;;14.54;72.94;101970.75;5048297;28;19913;-84
2022/12/17 22:55:03;;;;;;;;;;;;;;;14.55;73.07;101972.59;5051108;28;19913;-84
2022/12/17 22:57:32;;;;;;;;;;;;;;;14.57;73.03;101963.06;5048336;28;19974;-84
2022/12/17 22:59:58;;;;;;;;;;;;;;;14.58;73.12;101970.16;5045413;28;19979;-84
2022/12/17 23:02:29;;;;;;;;;;;;;;;14.56;73.06;101982.31;5046668;28;19920;-84
2022/12/17 23:05:13;;;;;;;;;;;;;;;14.55;72.96;101985.72;5048063;28;20011;-82
2022/12/17 23:07:39;;;;;;;;;;;;;;;14.56;72.94;101982.31;5042999;28;20346;-84
2022/12/17 23:10:05;;;;;;;;;;;;;;;14.57;72.87;101986.72;5043904;28;19963;-84
2022/12/17 23:12:49;;;;;;;;;;;;;;;14.58;72.94;101998.13;5039943;28;20043;-85
2022/12/17 23:15:20;;;;;;;;;;;;;;;14.57;72.75;102004.22;5046961;28;19917;-84
2022/12/17 23:17:46;;;;;;;;;;;;;;;14.58;73.04;102003.41;5030901;28;19913;-84
2022/12/17 23:20:11;;;;;;;;;;;;;;;14.57;73.04;102010.38;5042961;28;19913;-83
2022/12/17 23:22:37;;;;;;;;;;;;;;;14.59;72.85;102015.75;5045929;28;19921;-83
2022/12/17 23:25:12;;;;;;;;;;;;;;;14.60;72.96;102010.53;5033476;28;19913;-83
2022/12/17 23:27:40;;;;;;;;;;;;;;;14.57;72.90;102012.13;5044543;28;19913;-83
2022/12/17 23:30:05;;;;;;;;;;;;;;;14.58;73.03;102013.91;5037513;28;19916;-83
2022/12/17 23:32:31;;;;;;;;;;;;;;;14.58;72.97;102008.66;5047537;28;19928;-83
2022/12/17 23:34:56;;;;;;;;;;;;;;;14.59;73.00;102007.84;5046473;28;19913;-83
2022/12/17 23:37:23;;;;;;;;;;;;;;;14.59;73.02;102014.00;5046366;28;19912;-83
2022/12/17 23:39:49;;;;;;;;;;;;;;;14.58;72.78;102012.22;5041459;28;19921;-83
2022/12/17 23:42:15;;;;;;;;;;;;;;;14.60;72.90;102022.78;5043270;28;19924;-83
2022/12/17 23:44:40;;;;;;;;;;;;;;;14.59;73.10;102026.25;5044278;28;19920;-83
2022/12/17 23:47:05;;;;;;;;;;;;;;;14.58;73.05;102037.56;5050202;28;19928;-83
2022/12/17 23:49:31;;;;;;;;;;;;;;;14.61;72.85;102038.66;5050025;28;20381;-83
2022/12/17 23:51:56;;;;;;;;;;;;;;;14.59;73.17;102042.03;5045418;28;20593;-85
2022/12/17 23:54:22;;;;;;;;;;;;;;;14.60;73.06;102051.72;5046234;28;20321;-85
2022/12/17 23:56:47;;;;;;;;;;;;;;;14.60;72.97;102054.34;5042051;28;19960;-85
2022/12/17 23:59:13;;;;;;;;;;;;;;;14.60;72.90;102060.50;5043579;28;19912;-85
